Saint Clair Shores, Michigan
Current Conditions -  °F | °C
As of 1:55 PM on Monday 20 Oct 2014 (Local Time) from KMTC Reporting Station
Rain Showers Rain Showers  
Wind Chill: 57°   Ceiling: 5000
Heat Index: 57°   Visibility: 10mi
Dew Point: 46°   Wind: 10mph
Humidity: 68%   Direction: 220°SW
Pressure: 29.77"   Gusts: NA
Location:  42.58°N, 82.78°W
Report Text: KMTC 201755Z 22009KT 10SM VCSH SCT023 BKN050 14/08 A2977 RMK SLP089 T01370079 10146 20089 57019
Loading
Personal Weather Stations






























Interactive Weather Map
Tropical Storm Tracking
New forecast layout! Learn more

10-Day Weather Forecast

Advertisements
Track Severe Weather on mobile